createdAt,value
2023-08-03T00:01:11.408Z,95800.31
2023-08-03T00:04:01.811Z,95788.69
2023-08-03T00:06:49.018Z,95778.75
2023-08-03T00:09:35.855Z,95791.13
2023-08-03T00:12:23.293Z,95795.97
2023-08-03T00:15:10.651Z,95804.88
2023-08-03T00:17:57.584Z,95806.22
2023-08-03T00:20:44.499Z,95810.28
2023-08-03T00:23:31.819Z,95819.41
2023-08-03T00:26:18.699Z,95826.69
2023-08-03T00:29:05.701Z,95824.28
2023-08-03T00:31:52.590Z,95823.22
2023-08-03T00:34:39.510Z,95811.88
2023-08-03T00:37:26.406Z,95814.28
2023-08-03T00:40:13.577Z,95840.66
2023-08-03T00:43:00.487Z,95840.13
2023-08-03T00:45:47.508Z,95838.78
2023-08-03T00:48:34.372Z,95824.78
2023-08-03T00:51:21.192Z,95833.91
2023-08-03T00:54:08.611Z,95827.72
2023-08-03T00:56:55.755Z,95815.91
2023-08-03T00:59:44.460Z,95819.66
2023-08-03T01:02:31.920Z,95829.91
2023-08-03T01:05:18.942Z,95834.22
2023-08-03T01:08:05.832Z,95843.88
2023-08-03T01:10:53.082Z,95842.28
2023-08-03T01:13:40.062Z,95854.13
2023-08-03T01:16:28.185Z,95845.25
2023-08-03T01:19:15.265Z,95854.38
2023-08-03T01:22:03.286Z,95866.50
2023-08-03T01:24:50.252Z,95850.34
2023-08-03T01:27:37.260Z,95857.06
2023-08-03T01:30:24.477Z,95841.72
2023-08-03T01:33:11.727Z,95845.47
2023-08-03T01:35:59.325Z,95843.63
2023-08-03T01:38:54.214Z,95847.09
2023-08-03T01:41:42.672Z,95842.25
2023-08-03T01:44:30.297Z,95835.53
2023-08-03T01:47:17.168Z,95838.22
2023-08-03T01:50:04.451Z,95837.13
2023-08-03T01:52:51.330Z,95825.28
2023-08-03T01:55:38.290Z,95828.25
2023-08-03T01:58:25.137Z,95821.50
2023-08-03T02:01:12.075Z,95810.75
2023-08-03T02:03:58.993Z,95816.38
2023-08-03T02:06:50.437Z,95821.75
2023-08-03T02:09:37.290Z,95827.41
2023-08-03T02:12:24.107Z,95827.41
2023-08-03T02:15:11.346Z,95822.03
2023-08-03T02:17:58.319Z,95819.63
2023-08-03T02:20:45.214Z,95820.69
2023-08-03T02:23:32.557Z,95812.59
2023-08-03T02:26:19.375Z,95823.66
2023-08-03T02:29:06.241Z,95819.34
2023-08-03T02:31:53.095Z,95828.47
2023-08-03T02:34:39.941Z,95822.56
2023-08-03T02:37:26.780Z,95830.88
2023-08-03T02:40:13.625Z,95852.16
2023-08-03T02:43:00.543Z,95863.16
2023-08-03T02:45:47.415Z,95873.13
2023-08-03T02:48:34.334Z,95869.63
2023-08-03T02:51:21.154Z,95857.50
2023-08-03T02:54:08.018Z,95855.09
2023-08-03T02:56:54.872Z,95848.34
2023-08-03T02:59:41.746Z,95838.94
2023-08-03T03:02:28.748Z,95823.34
2023-08-03T03:05:15.904Z,95815.00
2023-08-03T03:08:02.859Z,95813.91
2023-08-03T03:10:49.701Z,95814.94
2023-08-03T03:13:36.595Z,95805.28
2023-08-03T03:16:26.876Z,95802.88
2023-08-03T03:19:14.063Z,95816.84
2023-08-03T03:22:00.928Z,95845.81
2023-08-03T03:24:47.803Z,95843.94
2023-08-03T03:27:34.664Z,95841.53
2023-08-03T03:30:21.550Z,95856.84
2023-08-03T03:33:08.529Z,95854.41
2023-08-03T03:35:55.417Z,95854.69
2023-08-03T03:38:42.296Z,95870.81
2023-08-03T03:41:29.107Z,95861.94
2023-08-03T03:44:15.978Z,95861.16
2023-08-03T03:47:02.938Z,95855.75
2023-08-03T03:49:49.865Z,95856.28
2023-08-03T03:52:36.825Z,95853.84
2023-08-03T03:55:23.998Z,95865.44
2023-08-03T03:58:10.910Z,95866.47
2023-08-03T04:00:57.805Z,95876.72
2023-08-03T04:03:44.748Z,95880.44
2023-08-03T04:06:32.437Z,95883.41
2023-08-03T04:09:19.284Z,95892.53
2023-08-03T04:12:06.379Z,95898.16
2023-08-03T04:14:53.306Z,95903.53
2023-08-03T04:17:40.447Z,95908.13
2023-08-03T04:20:27.384Z,95900.31
2023-08-03T04:23:14.232Z,95896.84
2023-08-03T04:26:01.079Z,95909.19
2023-08-03T04:28:47.910Z,95907.03
2023-08-03T04:31:34.786Z,95918.88
2023-08-03T04:34:21.782Z,95914.28
2023-08-03T04:37:08.659Z,95931.22
2023-08-03T04:39:55.600Z,95926.94
2023-08-03T04:42:42.444Z,95918.06
2023-08-03T04:45:29.384Z,95925.84
2023-08-03T04:48:16.222Z,95925.84
2023-08-03T04:51:03.144Z,95923.16
2023-08-03T04:53:50.055Z,95911.38
2023-08-03T04:56:37.397Z,95910.28
2023-08-03T04:59:24.272Z,95910.00
2023-08-03T05:02:11.245Z,95891.47
2023-08-03T05:04:58.107Z,95899.81
2023-08-03T05:07:44.983Z,95901.19
2023-08-03T05:10:31.937Z,95897.41
2023-08-03T05:13:19.051Z,95903.59
2023-08-03T05:16:06.032Z,95904.97
2023-08-03T05:18:53.274Z,95902.81
2023-08-03T05:21:40.133Z,95905.25
2023-08-03T05:24:27.146Z,95909.16
2023-08-03T05:27:14.039Z,95899.63
2023-08-03T05:30:00.893Z,95920.38
2023-08-03T05:32:48.204Z,95920.94
2023-08-03T05:35:35.068Z,95927.72
2023-08-03T05:38:21.958Z,95930.94
2023-08-03T05:41:15.107Z,95934.44
2023-08-03T05:44:02.728Z,95929.59
2023-08-03T05:46:49.681Z,95937.88
2023-08-03T05:49:36.553Z,95933.31
2023-08-03T05:52:23.486Z,95934.63
2023-08-03T05:55:14.628Z,95931.38
2023-08-03T05:58:01.607Z,95941.06
2023-08-03T06:00:49.767Z,95931.88
2023-08-03T06:03:42.571Z,95937.81
2023-08-03T06:06:30.262Z,95932.69
2023-08-03T06:09:23.497Z,95939.16
2023-08-03T06:12:14.228Z,95953.13
2023-08-03T06:15:01.121Z,95946.66
2023-08-03T06:17:48.309Z,95962.81
2023-08-03T06:20:35.733Z,95968.19
2023-08-03T06:23:28.012Z,95967.16
2023-08-03T06:26:17.276Z,95970.38
2023-08-03T06:29:06.389Z,95962.84
2023-08-03T06:31:53.373Z,95970.13
2023-08-03T06:34:40.442Z,95969.56
2023-08-03T06:37:28.984Z,95965.81
2023-08-03T06:40:15.864Z,95969.59
2023-08-03T06:43:03.176Z,95980.09
2023-08-03T06:45:50.115Z,95979.84
2023-08-03T06:48:37.262Z,95985.75
2023-08-03T06:51:24.189Z,95987.41
2023-08-03T06:54:11.017Z,95978.75
2023-08-03T06:56:58.012Z,95977.44
2023-08-03T06:59:44.853Z,95979.31
2023-08-03T07:02:31.954Z,95988.75
2023-08-03T07:05:18.874Z,95983.66
2023-08-03T07:08:05.786Z,95986.63
2023-08-03T07:10:52.834Z,95979.94
2023-08-03T07:13:39.688Z,95986.94
2023-08-03T07:16:27.929Z,95987.50
2023-08-03T07:19:17.521Z,95984.28
2023-08-03T07:22:05.717Z,95988.84
2023-08-03T07:24:52.720Z,95979.44
2023-08-03T07:27:42.198Z,95998.28
2023-08-03T07:30:32.214Z,95992.38
2023-08-03T07:33:19.893Z,95989.69
2023-08-03T07:36:07.076Z,95991.84
2023-08-03T07:38:53.954Z,95990.22
2023-08-03T07:41:40.830Z,95996.72
2023-08-03T07:44:49.132Z,96000.75
2023-08-03T07:47:34.592Z,96002.66
2023-08-03T07:50:21.443Z,95986.47
2023-08-03T07:53:08.405Z,95990.78
2023-08-03T07:55:55.438Z,95985.66
2023-08-03T07:58:42.422Z,95990.25
2023-08-03T08:01:29.406Z,95999.97
2023-08-03T08:04:18.243Z,96003.72
2023-08-03T08:07:05.296Z,96002.91
2023-08-03T08:09:53.871Z,96010.19
2023-08-03T08:12:40.740Z,96010.47
2023-08-03T08:15:29.230Z,96010.75
2023-08-03T08:18:16.218Z,96006.97
2023-08-03T08:21:05.220Z,96016.41
2023-08-03T08:23:52.144Z,96014.50
2023-08-03T08:26:39.140Z,96018.56
2023-08-03T08:29:26.092Z,96017.47
2023-08-03T08:32:12.956Z,96019.38
2023-08-03T08:34:59.912Z,96028.25
2023-08-03T08:37:46.953Z,96034.22
2023-08-03T08:40:40.977Z,96039.59
2023-08-03T08:43:29.108Z,96046.06
2023-08-03T08:46:16.026Z,96038.78
2023-08-03T08:49:03.344Z,96035.00
2023-08-03T09:00:21.148Z,96052.47
2023-08-03T09:03:08.141Z,96048.69
2023-08-03T09:08:56.194Z,96048.66
2023-08-03T09:11:43.535Z,96044.84
2023-08-03T09:14:31.726Z,96058.91
2023-08-03T09:17:23.952Z,96057.53
2023-08-03T09:24:35.190Z,96046.38
2023-08-03T09:29:33.267Z,96052.00
2023-08-03T09:38:26.351Z,96072.97
2023-08-03T09:41:13.689Z,96075.13
2023-08-03T09:44:01.894Z,96078.09
2023-08-03T09:46:50.527Z,96078.03
2023-08-03T09:49:37.389Z,96073.97
2023-08-03T09:55:24.077Z,96095.25
2023-08-03T09:58:15.039Z,96090.38
2023-08-03T10:01:05.450Z,96092.78
2023-08-03T10:03:59.303Z,96090.56
2023-08-03T10:06:47.968Z,96082.94
2023-08-03T10:09:39.416Z,96085.28
2023-08-03T10:12:34.047Z,96088.78
2023-08-03T10:15:21.238Z,96082.25
2023-08-03T10:18:08.292Z,96099.53
2023-08-03T10:20:55.332Z,96099.22
2023-08-03T10:24:13.178Z,96103.47
2023-08-03T10:30:10.561Z,96093.66
2023-08-03T10:32:57.532Z,96104.16
2023-08-03T10:35:45.816Z,96107.63
2023-08-03T10:38:32.793Z,96106.81
2023-08-03T10:41:23.418Z,96119.97
2023-08-03T10:44:10.550Z,96100.19
2023-08-03T10:46:59.260Z,96090.09
2023-08-03T10:49:46.256Z,96114.94
2023-08-03T10:52:33.401Z,96109.50
2023-08-03T10:55:22.899Z,96109.66
2023-08-03T10:58:09.845Z,96126.72
2023-08-03T11:00:56.723Z,96113.69
2023-08-03T11:03:43.832Z,96105.03
2023-08-03T11:06:30.920Z,96121.41
2023-08-03T11:09:18.212Z,96110.63
2023-08-03T11:12:07.962Z,96117.50
2023-08-03T11:14:56.547Z,96114.66
2023-08-03T11:17:47.750Z,96108.28
2023-08-03T11:20:41.871Z,96104.88
2023-08-03T11:23:32.439Z,96112.34
2023-08-03T11:26:19.300Z,96106.53
2023-08-03T11:29:08.066Z,96101.53
2023-08-03T11:31:55.126Z,96109.78
2023-08-03T11:34:42.129Z,96109.13
2023-08-03T11:37:31.254Z,96115.00
2023-08-03T11:40:19.078Z,96104.53
2023-08-03T11:43:06.059Z,96107.94
2023-08-03T11:45:56.488Z,96095.09
2023-08-03T11:48:46.870Z,96092.78
2023-08-03T11:51:38.053Z,96100.81
2023-08-03T11:54:25.634Z,96102.94
2023-08-03T11:57:31.622Z,96115.63
2023-08-03T12:00:19.217Z,96104.66
2023-08-03T12:03:06.201Z,96125.50
2023-08-03T12:06:06.572Z,96118.63
2023-08-03T12:08:55.935Z,96112.28
2023-08-03T12:11:42.975Z,96118.22
2023-08-03T12:14:30.055Z,96117.34
2023-08-03T12:17:17.182Z,96108.25
2023-08-03T12:20:04.288Z,96113.91
2023-08-03T12:22:51.149Z,96124.69
2023-08-03T12:25:42.162Z,96118.63
2023-08-03T12:28:29.595Z,96118.84
2023-08-03T12:31:16.467Z,96125.28
2023-08-03T12:34:03.469Z,96123.88
2023-08-03T12:36:50.516Z,96144.22
2023-08-03T12:39:37.470Z,96128.38
2023-08-03T12:42:24.510Z,96141.38
2023-08-03T12:45:11.662Z,96138.06
2023-08-03T12:48:01.809Z,96140.97
2023-08-03T12:50:48.773Z,96142.28
2023-08-03T12:53:38.648Z,96147.63
2023-08-03T12:56:25.536Z,96139.94
2023-08-03T12:59:12.442Z,96132.78
2023-08-03T13:02:00.555Z,96150.13
2023-08-03T13:04:52.131Z,96139.09
2023-08-03T13:07:39.146Z,96145.53
2023-08-03T13:10:26.275Z,96148.78
2023-08-03T13:13:13.806Z,96149.25
2023-08-03T13:16:00.696Z,96144.31
2023-08-03T13:18:49.812Z,96144.81
2023-08-03T13:21:36.767Z,96148.56
2023-08-03T13:24:23.936Z,96147.13
2023-08-03T13:27:14.762Z,96158.22
2023-08-03T13:30:01.797Z,96152.94
2023-08-03T13:32:48.938Z,96170.59
2023-08-03T13:35:36.217Z,96171.91
2023-08-03T13:38:23.272Z,96182.25
2023-08-03T13:41:10.206Z,96171.78
2023-08-03T13:43:57.267Z,96180.94
2023-08-03T13:46:44.514Z,96187.88
2023-08-03T13:49:33.075Z,96185.81
2023-08-03T13:52:19.969Z,96174.84
2023-08-03T13:55:07.048Z,96177.22
2023-08-03T14:03:35.397Z,96176.31
2023-08-03T14:09:15.985Z,96179.22
2023-08-03T14:12:04.932Z,96187.00
2023-08-03T14:14:51.944Z,96172.28
2023-08-03T14:23:21.596Z,96182.16
2023-08-03T14:26:08.774Z,96183.81
2023-08-03T14:31:45.713Z,96184.06
2023-08-03T14:37:22.557Z,96179.44
2023-08-03T14:40:09.686Z,96189.41
2023-08-03T14:42:57.098Z,96182.25
2023-08-03T14:45:53.639Z,96179.19
2023-08-03T14:48:40.712Z,96185.94
2023-08-03T14:54:17.496Z,96193.97
2023-08-03T14:57:06.092Z,96202.34
2023-08-03T14:59:53.134Z,96205.56
2023-08-03T15:02:40.229Z,96200.59
2023-08-03T15:05:30.263Z,96201.09
2023-08-03T15:08:17.349Z,96212.50
2023-08-03T15:11:04.359Z,96201.56
2023-08-03T15:13:59.018Z,96206.41
2023-08-03T15:16:46.750Z,96218.91
2023-08-03T15:19:40.418Z,96220.22
2023-08-03T15:22:29.413Z,96195.19
2023-08-03T15:25:17.786Z,96215.56
2023-08-03T15:28:10.885Z,96218.63
2023-08-03T15:31:00.974Z,96213.97
2023-08-03T15:33:51.118Z,96216.38
2023-08-03T15:36:44.135Z,96206.59
2023-08-03T15:39:32.630Z,96207.38
2023-08-03T15:42:22.626Z,96207.38
2023-08-03T15:45:16.636Z,96206.59
2023-08-03T15:48:43.592Z,96204.34
2023-08-03T15:51:18.768Z,96214.16
2023-08-03T15:54:10.706Z,96200.50
2023-08-03T15:59:50.936Z,96200.16
2023-08-03T16:02:37.879Z,96211.91
2023-08-03T16:05:26.646Z,96200.16
2023-08-03T16:08:13.903Z,96208.69
2023-08-03T16:11:01.589Z,96216.88
2023-08-03T16:13:48.458Z,96203.22
2023-08-03T16:16:35.385Z,96203.84
2023-08-03T16:19:22.767Z,96216.38
2023-08-03T16:22:09.690Z,96211.25
2023-08-03T16:24:56.669Z,96217.50
2023-08-03T16:27:43.610Z,96220.22
2023-08-03T16:30:32.307Z,96217.03
2023-08-03T16:33:19.355Z,96220.56
2023-08-03T16:36:16.280Z,96222.47
2023-08-03T16:39:03.626Z,96220.84
2023-08-03T16:41:50.457Z,96218.44
2023-08-03T16:44:37.398Z,96227.75
2023-08-03T16:47:24.490Z,96219.56
2023-08-03T16:50:14.423Z,96216.00
2023-08-03T16:53:01.361Z,96217.16
2023-08-03T16:55:48.182Z,96222.13
2023-08-03T16:58:35.065Z,96210.72
2023-08-03T17:01:21.911Z,96220.03
2023-08-03T17:04:08.939Z,96212.94
2023-08-03T17:06:55.979Z,96221.13
2023-08-03T17:09:43.027Z,96218.38
2023-08-03T17:12:30.067Z,96208.94
2023-08-03T17:15:17.118Z,96212.75
2023-08-03T17:18:04.830Z,96217.72
2023-08-03T17:20:52.277Z,96213.41
2023-08-03T17:23:39.184Z,96225.41
2023-08-03T17:26:26.011Z,96223.00
2023-08-03T17:29:13.223Z,96215.16
2023-08-03T17:32:00.149Z,96218.97
2023-08-03T17:34:47.014Z,96225.56
2023-08-03T17:37:35.257Z,96222.03
2023-08-03T17:40:22.904Z,96235.97
2023-08-03T17:43:09.779Z,96239.00
2023-08-03T17:45:56.654Z,96243.97
2023-08-03T17:48:44.455Z,96243.97
2023-08-03T17:51:31.450Z,96240.75
2023-08-03T17:54:19.300Z,96241.88
2023-08-03T17:57:06.249Z,96246.50
2023-08-03T17:59:53.235Z,96244.09
2023-08-03T18:02:40.164Z,96250.69
2023-08-03T18:05:28.157Z,96252.59
2023-08-03T18:08:15.127Z,96254.84
2023-08-03T18:11:03.962Z,96264.13
2023-08-03T18:13:52.282Z,96255.44
2023-08-03T18:16:39.230Z,96262.03
2023-08-03T18:19:26.345Z,96278.69
2023-08-03T18:22:13.209Z,96285.25
2023-08-03T18:25:01.184Z,96291.84
2023-08-03T18:27:49.631Z,96294.06
2023-08-03T18:30:36.836Z,96297.09
2023-08-03T18:33:23.762Z,96304.47
2023-08-03T18:36:16.307Z,96298.50
2023-08-03T18:39:03.188Z,96302.38
2023-08-03T18:41:50.062Z,96306.50
2023-08-03T18:44:37.956Z,96304.06
2023-08-03T18:47:24.941Z,96303.56
2023-08-03T18:50:11.840Z,96305.81
2023-08-03T18:52:58.814Z,96315.41
2023-08-03T18:55:45.685Z,96324.69
2023-08-03T18:58:35.025Z,96319.84
2023-08-03T19:01:22.412Z,96322.88
2023-08-03T19:04:09.285Z,96326.22
2023-08-03T19:06:56.326Z,96330.06
2023-08-03T19:09:43.268Z,96333.38
2023-08-03T19:12:30.132Z,96337.22
2023-08-03T19:15:18.379Z,96336.44
2023-08-03T19:18:06.128Z,96345.72
2023-08-03T19:20:53.146Z,96343.59
2023-08-03T19:23:40.131Z,96358.34
2023-08-03T19:26:27.093Z,96352.38
2023-08-03T19:29:17.463Z,96358.16
2023-08-03T19:32:06.543Z,96359.88
2023-08-03T19:34:53.392Z,96370.59
2023-08-03T19:37:40.242Z,96378.25
2023-08-03T19:40:27.140Z,96369.88
2023-08-03T19:43:14.241Z,96372.41
2023-08-03T19:46:01.286Z,96367.56
2023-08-03T19:48:48.315Z,96371.41
2023-08-03T19:58:14.866Z,96383.28
2023-08-03T20:08:53.034Z,96398.78
2023-08-03T20:11:39.960Z,96406.75
2023-08-03T20:20:07.823Z,96410.06
2023-08-03T20:22:54.723Z,96410.69
2023-08-03T20:25:41.634Z,96425.13
2023-08-03T20:28:28.751Z,96421.66
2023-08-03T20:31:15.642Z,96415.81
2023-08-03T20:36:52.523Z,96421.56
2023-08-03T20:39:39.467Z,96434.97
2023-08-03T20:50:58.515Z,96433.63
2023-08-03T20:53:45.408Z,96433.13
2023-08-03T20:56:32.539Z,96426.66
2023-08-03T20:59:19.457Z,96430.78
2023-08-03T21:02:06.365Z,96433.59
2023-08-03T21:04:53.365Z,96440.72
2023-08-03T21:07:40.294Z,96434.59
2023-08-03T21:13:17.026Z,96434.66
2023-08-03T21:16:11.472Z,96434.94
2023-08-03T21:21:48.574Z,96449.13
2023-08-03T21:24:35.719Z,96442.34
2023-08-03T21:27:24.137Z,96438.59
2023-08-03T21:33:03.673Z,96443.91
2023-08-03T21:35:50.636Z,96439.88
2023-08-03T21:38:37.456Z,96437.44
2023-08-03T21:41:24.328Z,96436.63
2023-08-03T21:44:11.295Z,96444.78
2023-08-03T21:46:58.136Z,96443.16
2023-08-03T21:49:45.559Z,96455.97
2023-08-03T21:52:32.428Z,96458.47
2023-08-03T21:55:19.712Z,96464.22
2023-08-03T21:58:10.041Z,96469.13
2023-08-03T22:00:56.960Z,96463.47
2023-08-03T22:03:44.178Z,96466.75
2023-08-03T22:06:31.028Z,96465.72
2023-08-03T22:09:17.894Z,96469.84
2023-08-03T22:12:05.007Z,96488.38
2023-08-03T22:14:51.885Z,96507.19
2023-08-03T22:17:39.910Z,96503.44
2023-08-03T22:20:27.092Z,96510.81
2023-08-03T22:23:13.975Z,96516.56
2023-08-03T22:26:01.423Z,96520.38
2023-08-03T22:28:49.382Z,96520.97
2023-08-03T22:31:36.589Z,96524.78
2023-08-03T22:34:23.448Z,96528.09
2023-08-03T22:37:10.308Z,96517.00
2023-08-03T22:39:57.216Z,96506.41
2023-08-03T22:42:44.240Z,96516.50
2023-08-03T22:45:31.261Z,96505.88
2023-08-03T22:48:18.212Z,96506.19
2023-08-03T22:51:05.123Z,96499.72
2023-08-03T22:53:51.980Z,96496.00
2023-08-03T22:56:38.871Z,96505.03
2023-08-03T22:59:25.792Z,96507.50
2023-08-03T23:02:12.696Z,96508.63
2023-08-03T23:04:59.613Z,96505.59
2023-08-03T23:07:46.458Z,96508.31
2023-08-03T23:10:33.336Z,96511.03
2023-08-03T23:13:22.736Z,96506.72
2023-08-03T23:16:10.043Z,96512.13
2023-08-03T23:18:56.946Z,96502.66
2023-08-03T23:21:44.019Z,96495.88
2023-08-03T23:24:30.996Z,96501.06
2023-08-03T23:27:17.839Z,96514.97
2023-08-03T23:30:05.229Z,96504.38
2023-08-03T23:32:52.197Z,96510.66
2023-08-03T23:35:39.144Z,96517.50
2023-08-03T23:38:26.194Z,96516.16
2023-08-03T23:41:13.036Z,96517.25
2023-08-03T23:43:59.989Z,96509.69
2023-08-03T23:46:46.884Z,96507.53
2023-08-03T23:49:33.780Z,96504.28
2023-08-03T23:52:20.911Z,96524.38
2023-08-03T23:55:10.543Z,96527.09
2023-08-03T23:57:57.558Z,96535.53
